Stephenville, TX (76401)

10:06 PM CST on February 19, 2017 (GMT -0600)
Calvary Baptist | | Change Station
Active Advisory: Severe Thunderstorm Watch

Elev 1335 ft 32.23 °N, 98.23 °W | Updated 11 seconds ago

Rain
Rain
61.0 °F
Feels Like 61.0 °F
N
4.2
Wind Variable Wind from WNW
Gusts 4.9 mph

Today
High -- | Low -- °F
--% Chance of Precip.
Yesterday
High -- | Low -- °F
Precip. -- in
Pressure 29.90 in
Visibility 10.0 miles
Clouds Mostly Cloudy 1600 ft
Overcast 2400 ft
Dew Point 59 °F
Humidity 94%
Rainfall 0.04 in
Snow Depth Not available.
7:10 AM 6:22 PM
Last Quarter, 37% visible
METAR KSEP 200355Z AUTO 32016G26KT 10SM BKN016 OVC024 17/12 A2990 RMK AO2 T01720120
Pressure 29.90 in
Visibility 10.0 miles
Clouds Mostly Cloudy 1600 ft
Overcast 2400 ft
Dew Point 59 °F
Humidity 94%
Rainfall 0.04 in
Snow Depth Not available.
7:10 AM 6:22 PM
Last Quarter, 37% visible
METAR KSEP 200355Z AUTO 32016G26KT 10SM BKN016 OVC024 17/12 A2990 RMK AO2 T01720120

Get Your Daily Forecast Email!

Thanks for signing up!

Be on the lookout for a verification email in your inbox.

You'll start receiving the daily forecast at 8 AM.

×

10-Day Weather Forecast

Almanac

Astronomy

Feb. 19, 2017 Rise Set
Actual Time
Civil Twilight
Nautical Twilight
Astronomical Twilight
Moon
Length of Visible Light
Length of Day
Tomorrow will be .
, % of the Moon is Illuminated

Today's Extremes

State Highs State Lows

Community

WunderPhotos

Upload Photos

1,962,540 photos uploaded!

WunderBlog® & News

Nearby

Air Quality

  Air Quality AQ Index Pollutant
Not available.

Snow Depth

Station Depth Elevation

Earthquake Activity

City Distance Mag. Time & Date
Minimum magnitude displayed is 2.5.

Coastal Water Temperatures

Place Temperature

Stations

Nearby Weather Stations

Station Location Temp. Windchill Dew Point Humidity Wind Precip. Elev Updated Type
                   

Watches & Warnings

Severe Thunderstorm Watch
Issued: 9:43 PM CST Feb. 19, 2017 – National Weather Service

Severe Thunderstorm Watch 34 remains in effect until 1200 am CST

TX
. Texas counties included are

Archer Baylor Brown
Clay Coleman Comanche
Erath Hamilton Hood
Jack McCulloch Mills
Montague Palo Pinto Parker
San Saba Wichita Wilbarger
wise